sensor_id;sensor_type;location;lat;lon;timestamp;P1;durP1;ratioP1;P2;durP2;ratioP2
15643;SDS011;7921;43.586;1.408;2022-10-31T12:41:19;8.38;;;3.88;;
15643;SDS011;7921;43.586;1.408;2022-10-31T12:54:55;8.50;;;3.70;;
15643;SDS011;7921;43.586;1.408;2022-10-31T12:57:39;8.43;;;3.33;;
15643;SDS011;7921;43.586;1.408;2022-10-31T13:05:13;8.35;;;4.03;;
15643;SDS011;7921;43.586;1.408;2022-10-31T13:07:53;7.93;;;3.85;;
15643;SDS011;7921;43.586;1.408;2022-10-31T13:10:24;8.90;;;3.90;;
15643;SDS011;7921;43.586;1.408;2022-10-31T13:12:53;9.57;;;4.05;;
15643;SDS011;7921;43.586;1.408;2022-10-31T13:15:23;7.88;;;3.50;;
15643;SDS011;7921;43.586;1.408;2022-10-31T13:17:59;23.98;;;5.75;;
15643;SDS011;7921;43.586;1.408;2022-10-31T13:20:30;17.77;;;5.03;;
15643;SDS011;7921;43.586;1.408;2022-10-31T13:23:07;10.75;;;3.88;;
15643;SDS011;7921;43.586;1.408;2022-10-31T13:25:53;9.55;;;4.10;;
15643;SDS011;7921;43.586;1.408;2022-10-31T13:30:48;58.60;;;12.45;;
15643;SDS011;7921;43.586;1.408;2022-10-31T13:33:18;7.68;;;3.38;;
15643;SDS011;7921;43.586;1.408;2022-10-31T13:35:50;9.77;;;3.80;;
15643;SDS011;7921;43.586;1.408;2022-10-31T13:45:54;6.22;;;3.22;;
15643;SDS011;7921;43.586;1.408;2022-10-31T13:48:40;7.53;;;3.55;;
15643;SDS011;7921;43.586;1.408;2022-10-31T13:51:08;7.70;;;3.72;;
15643;SDS011;7921;43.586;1.408;2022-10-31T13:53:39;7.55;;;3.97;;
15643;SDS011;7921;43.586;1.408;2022-10-31T14:01:33;6.72;;;3.60;;
15643;SDS011;7921;43.586;1.408;2022-10-31T14:04:20;9.25;;;3.45;;
15643;SDS011;7921;43.586;1.408;2022-10-31T14:06:56;9.50;;;4.03;;
15643;SDS011;7921;43.586;1.408;2022-10-31T14:09:27;8.35;;;3.17;;
15643;SDS011;7921;43.586;1.408;2022-10-31T14:11:54;8.88;;;3.80;;
15643;SDS011;7921;43.586;1.408;2022-10-31T14:14:29;10.98;;;4.03;;
15643;SDS011;7921;43.586;1.408;2022-10-31T14:16:57;6.93;;;3.50;;
15643;SDS011;7921;43.586;1.408;2022-10-31T14:19:23;9.82;;;3.97;;
15643;SDS011;7921;43.586;1.408;2022-10-31T14:21:50;6.53;;;3.72;;
15643;SDS011;7921;43.586;1.408;2022-10-31T14:26:58;5.65;;;3.53;;
15643;SDS011;7921;43.586;1.408;2022-10-31T14:29:25;11.85;;;4.63;;
15643;SDS011;7921;43.586;1.408;2022-10-31T14:34:34;9.25;;;4.18;;
15643;SDS011;7921;43.586;1.408;2022-10-31T14:37:47;5.13;;;3.30;;
15643;SDS011;7921;43.586;1.408;2022-10-31T14:51:00;5.25;;;3.53;;
15643;SDS011;7921;43.586;1.408;2022-10-31T14:55:54;7.55;;;3.75;;
15643;SDS011;7921;43.586;1.408;2022-10-31T14:58:22;7.03;;;3.95;;
15643;SDS011;7921;43.586;1.408;2022-10-31T15:00:58;10.43;;;4.10;;
15643;SDS011;7921;43.586;1.408;2022-10-31T15:03:31;5.60;;;3.67;;
15643;SDS011;7921;43.586;1.408;2022-10-31T15:06:04;8.32;;;4.22;;
15643;SDS011;7921;43.586;1.408;2022-10-31T15:08:38;12.07;;;4.50;;
15643;SDS011;7921;43.586;1.408;2022-10-31T15:11:37;9.32;;;3.80;;
15643;SDS011;7921;43.586;1.408;2022-10-31T15:14:01;10.25;;;4.53;;
15643;SDS011;7921;43.586;1.408;2022-10-31T15:16:27;7.53;;;4.03;;
15643;SDS011;7921;43.586;1.408;2022-10-31T15:19:05;8.30;;;3.88;;
15643;SDS011;7921;43.586;1.408;2022-10-31T15:21:32;9.48;;;4.15;;
15643;SDS011;7921;43.586;1.408;2022-10-31T15:23:58;8.70;;;3.97;;
15643;SDS011;7921;43.586;1.408;2022-10-31T15:26:32;8.45;;;3.83;;
15643;SDS011;7921;43.586;1.408;2022-10-31T15:31:56;7.65;;;3.60;;
15643;SDS011;7921;43.586;1.408;2022-10-31T15:34:38;11.15;;;4.10;;
15643;SDS011;7921;43.586;1.408;2022-10-31T15:37:08;6.00;;;3.63;;
15643;SDS011;7921;43.586;1.408;2022-10-31T15:39:36;6.32;;;4.03;;
15643;SDS011;7921;43.586;1.408;2022-10-31T15:42:02;7.15;;;3.92;;
15643;SDS011;7921;43.586;1.408;2022-10-31T15:44:31;10.80;;;3.90;;
15643;SDS011;7921;43.586;1.408;2022-10-31T15:47:05;9.00;;;4.00;;
15643;SDS011;7921;43.586;1.408;2022-10-31T15:49:41;10.13;;;3.75;;
15643;SDS011;7921;43.586;1.408;2022-10-31T15:52:12;9.43;;;4.70;;
15643;SDS011;7921;43.586;1.408;2022-10-31T15:54:44;7.72;;;3.83;;
15643;SDS011;7921;43.586;1.408;2022-10-31T15:57:20;9.50;;;4.07;;
15643;SDS011;7921;43.586;1.408;2022-10-31T15:59:48;12.20;;;4.10;;
15643;SDS011;7921;43.586;1.408;2022-10-31T16:02:14;7.20;;;4.13;;
15643;SDS011;7921;43.586;1.408;2022-10-31T16:04:50;9.10;;;4.20;;
15643;SDS011;7921;43.586;1.408;2022-10-31T16:07:26;7.47;;;3.97;;
15643;SDS011;7921;43.586;1.408;2022-10-31T16:09:57;9.95;;;3.90;;
15643;SDS011;7921;43.586;1.408;2022-10-31T16:12:31;9.50;;;4.15;;
15643;SDS011;7921;43.586;1.408;2022-10-31T16:14:59;10.73;;;3.95;;
15643;SDS011;7921;43.586;1.408;2022-10-31T16:17:26;4.97;;;4.00;;
15643;SDS011;7921;43.586;1.408;2022-10-31T16:22:23;7.10;;;3.92;;
15643;SDS011;7921;43.586;1.408;2022-10-31T16:25:04;10.73;;;4.53;;
15643;SDS011;7921;43.586;1.408;2022-10-31T16:27:35;8.02;;;4.07;;
15643;SDS011;7921;43.586;1.408;2022-10-31T16:30:03;8.48;;;4.80;;
15643;SDS011;7921;43.586;1.408;2022-10-31T16:32:56;8.48;;;4.22;;
15643;SDS011;7921;43.586;1.408;2022-10-31T16:37:55;7.88;;;4.07;;
15643;SDS011;7921;43.586;1.408;2022-10-31T16:40:20;8.20;;;4.38;;
15643;SDS011;7921;43.586;1.408;2022-10-31T16:42:46;5.97;;;4.20;;
15643;SDS011;7921;43.586;1.408;2022-10-31T16:45:15;8.65;;;4.57;;
15643;SDS011;7921;43.586;1.408;2022-10-31T16:47:45;7.47;;;4.55;;
15643;SDS011;7921;43.586;1.408;2022-10-31T16:50:12;9.13;;;4.65;;
15643;SDS011;7921;43.586;1.408;2022-10-31T16:52:39;6.50;;;3.90;;
15643;SDS011;7921;43.586;1.408;2022-10-31T16:55:04;7.57;;;4.57;;
15643;SDS011;7921;43.586;1.408;2022-10-31T16:57:30;8.63;;;4.40;;
15643;SDS011;7921;43.586;1.408;2022-10-31T16:59:56;5.85;;;4.25;;
15643;SDS011;7921;43.586;1.408;2022-10-31T17:02:21;8.55;;;4.50;;
15643;SDS011;7921;43.586;1.408;2022-10-31T17:04:47;7.10;;;4.38;;
15643;SDS011;7921;43.586;1.408;2022-10-31T17:07:12;6.68;;;4.03;;
15643;SDS011;7921;43.586;1.408;2022-10-31T17:09:38;10.85;;;5.15;;
15643;SDS011;7921;43.586;1.408;2022-10-31T17:12:03;6.10;;;4.53;;
15643;SDS011;7921;43.586;1.408;2022-10-31T17:14:29;8.45;;;4.50;;
15643;SDS011;7921;43.586;1.408;2022-10-31T17:16:55;7.28;;;4.72;;
15643;SDS011;7921;43.586;1.408;2022-10-31T17:19:20;8.50;;;4.60;;
15643;SDS011;7921;43.586;1.408;2022-10-31T17:21:46;13.00;;;5.50;;
15643;SDS011;7921;43.586;1.408;2022-10-31T17:24:12;8.95;;;4.50;;
15643;SDS011;7921;43.586;1.408;2022-10-31T17:26:39;9.73;;;4.38;;
15643;SDS011;7921;43.586;1.408;2022-10-31T17:29:04;10.70;;;5.28;;
15643;SDS011;7921;43.586;1.408;2022-10-31T17:31:30;8.80;;;4.97;;
15643;SDS011;7921;43.586;1.408;2022-10-31T17:33:58;11.18;;;4.57;;
15643;SDS011;7921;43.586;1.408;2022-10-31T17:36:24;10.13;;;4.60;;
15643;SDS011;7921;43.586;1.408;2022-10-31T17:38:50;10.20;;;5.05;;
15643;SDS011;7921;43.586;1.408;2022-10-31T17:41:15;9.35;;;4.63;;
15643;SDS011;7921;43.586;1.408;2022-10-31T17:43:40;8.82;;;4.75;;
15643;SDS011;7921;43.586;1.408;2022-10-31T17:46:06;10.93;;;5.05;;
15643;SDS011;7921;43.586;1.408;2022-10-31T17:48:32;9.27;;;5.70;;
15643;SDS011;7921;43.586;1.408;2022-10-31T17:50:59;9.65;;;5.63;;
15643;SDS011;7921;43.586;1.408;2022-10-31T17:53:27;10.05;;;4.90;;
15643;SDS011;7921;43.586;1.408;2022-10-31T17:56:03;12.52;;;5.53;;
15643;SDS011;7921;43.586;1.408;2022-10-31T17:58:30;7.95;;;5.18;;
15643;SDS011;7921;43.586;1.408;2022-10-31T18:00:56;8.18;;;5.13;;
15643;SDS011;7921;43.586;1.408;2022-10-31T18:03:22;9.30;;;5.00;;
15643;SDS011;7921;43.586;1.408;2022-10-31T18:05:55;7.80;;;5.22;;
15643;SDS011;7921;43.586;1.408;2022-10-31T18:08:26;12.70;;;5.25;;
15643;SDS011;7921;43.586;1.408;2022-10-31T18:10:53;7.65;;;4.63;;
15643;SDS011;7921;43.586;1.408;2022-10-31T18:13:19;9.60;;;5.20;;
15643;SDS011;7921;43.586;1.408;2022-10-31T18:15:45;8.35;;;6.00;;
15643;SDS011;7921;43.586;1.408;2022-10-31T18:18:10;9.60;;;6.95;;
15643;SDS011;7921;43.586;1.408;2022-10-31T18:20:35;11.73;;;7.22;;
15643;SDS011;7921;43.586;1.408;2022-10-31T18:23:01;15.02;;;8.20;;
15643;SDS011;7921;43.586;1.408;2022-10-31T18:25:26;13.20;;;8.43;;
15643;SDS011;7921;43.586;1.408;2022-10-31T18:27:52;10.98;;;8.73;;
15643;SDS011;7921;43.586;1.408;2022-10-31T18:30:17;15.63;;;10.40;;
15643;SDS011;7921;43.586;1.408;2022-10-31T18:32:43;11.00;;;9.30;;
15643;SDS011;7921;43.586;1.408;2022-10-31T18:35:08;14.52;;;8.77;;
15643;SDS011;7921;43.586;1.408;2022-10-31T18:37:34;10.02;;;8.00;;
15643;SDS011;7921;43.586;1.408;2022-10-31T18:39:59;10.63;;;7.47;;
15643;SDS011;7921;43.586;1.408;2022-10-31T18:42:25;10.75;;;7.07;;
15643;SDS011;7921;43.586;1.408;2022-10-31T18:44:50;12.23;;;8.45;;
15643;SDS011;7921;43.586;1.408;2022-10-31T18:47:15;11.85;;;7.65;;
15643;SDS011;7921;43.586;1.408;2022-10-31T18:49:43;10.82;;;7.28;;
15643;SDS011;7921;43.586;1.408;2022-10-31T18:52:08;11.52;;;6.15;;
15643;SDS011;7921;43.586;1.408;2022-10-31T18:54:34;10.32;;;5.90;;
15643;SDS011;7921;43.586;1.408;2022-10-31T18:56:59;9.40;;;6.35;;
15643;SDS011;7921;43.586;1.408;2022-10-31T18:59:25;9.65;;;6.20;;
15643;SDS011;7921;43.586;1.408;2022-10-31T19:01:50;10.48;;;6.88;;
15643;SDS011;7921;43.586;1.408;2022-10-31T19:04:15;13.30;;;6.22;;
15643;SDS011;7921;43.586;1.408;2022-10-31T19:06:41;8.88;;;6.28;;
15643;SDS011;7921;43.586;1.408;2022-10-31T19:09:06;10.73;;;6.32;;
15643;SDS011;7921;43.586;1.408;2022-10-31T19:11:34;13.40;;;7.40;;
15643;SDS011;7921;43.586;1.408;2022-10-31T19:13:59;10.32;;;6.50;;
15643;SDS011;7921;43.586;1.408;2022-10-31T19:16:25;9.20;;;6.85;;
15643;SDS011;7921;43.586;1.408;2022-10-31T19:18:55;10.73;;;8.98;;
15643;SDS011;7921;43.586;1.408;2022-10-31T19:21:21;10.32;;;6.95;;
15643;SDS011;7921;43.586;1.408;2022-10-31T19:23:47;8.80;;;6.45;;
15643;SDS011;7921;43.586;1.408;2022-10-31T19:26:12;11.82;;;8.35;;
15643;SDS011;7921;43.586;1.408;2022-10-31T19:28:38;16.27;;;11.07;;
15643;SDS011;7921;43.586;1.408;2022-10-31T19:31:04;16.30;;;8.55;;
15643;SDS011;7921;43.586;1.408;2022-10-31T19:33:30;17.17;;;9.48;;
15643;SDS011;7921;43.586;1.408;2022-10-31T19:36:00;10.57;;;7.70;;
15643;SDS011;7921;43.586;1.408;2022-10-31T19:38:26;13.55;;;6.75;;
15643;SDS011;7921;43.586;1.408;2022-10-31T19:40:56;9.55;;;6.97;;
15643;SDS011;7921;43.586;1.408;2022-10-31T19:43:22;12.98;;;6.72;;
15643;SDS011;7921;43.586;1.408;2022-10-31T19:45:52;9.93;;;7.28;;
15643;SDS011;7921;43.586;1.408;2022-10-31T19:48:19;10.80;;;6.55;;
15643;SDS011;7921;43.586;1.408;2022-10-31T19:50:44;10.13;;;6.13;;
15643;SDS011;7921;43.586;1.408;2022-10-31T19:53:09;10.43;;;5.70;;
15643;SDS011;7921;43.586;1.408;2022-10-31T19:55:38;9.73;;;5.82;;
15643;SDS011;7921;43.586;1.408;2022-10-31T19:58:03;11.68;;;6.45;;
15643;SDS011;7921;43.586;1.408;2022-10-31T20:00:29;9.77;;;5.80;;
15643;SDS011;7921;43.586;1.408;2022-10-31T20:02:54;17.08;;;6.93;;
15643;SDS011;7921;43.586;1.408;2022-10-31T20:05:20;14.52;;;6.40;;
15643;SDS011;7921;43.586;1.408;2022-10-31T20:07:45;11.65;;;6.68;;
15643;SDS011;7921;43.586;1.408;2022-10-31T20:10:10;14.75;;;6.70;;
15643;SDS011;7921;43.586;1.408;2022-10-31T20:12:36;12.43;;;6.68;;
15643;SDS011;7921;43.586;1.408;2022-10-31T20:15:01;9.98;;;6.28;;
15643;SDS011;7921;43.586;1.408;2022-10-31T20:17:27;10.00;;;6.90;;
15643;SDS011;7921;43.586;1.408;2022-10-31T20:19:52;14.23;;;7.00;;
15643;SDS011;7921;43.586;1.408;2022-10-31T20:22:18;11.85;;;6.80;;
15643;SDS011;7921;43.586;1.408;2022-10-31T20:24:43;8.18;;;6.70;;
15643;SDS011;7921;43.586;1.408;2022-10-31T20:27:08;11.38;;;8.43;;
15643;SDS011;7921;43.586;1.408;2022-10-31T20:29:34;13.15;;;8.18;;
15643;SDS011;7921;43.586;1.408;2022-10-31T20:31:59;13.32;;;8.68;;
15643;SDS011;7921;43.586;1.408;2022-10-31T20:34:25;13.15;;;7.65;;
15643;SDS011;7921;43.586;1.408;2022-10-31T20:36:50;9.15;;;6.85;;
15643;SDS011;7921;43.586;1.408;2022-10-31T20:39:15;10.40;;;6.97;;
15643;SDS011;7921;43.586;1.408;2022-10-31T20:41:41;11.68;;;7.15;;
15643;SDS011;7921;43.586;1.408;2022-10-31T20:44:06;11.10;;;7.03;;
15643;SDS011;7921;43.586;1.408;2022-10-31T20:46:32;14.75;;;6.80;;
15643;SDS011;7921;43.586;1.408;2022-10-31T20:48:57;10.82;;;5.78;;
15643;SDS011;7921;43.586;1.408;2022-10-31T20:51:24;11.48;;;7.13;;
15643;SDS011;7921;43.586;1.408;2022-10-31T20:53:52;12.65;;;7.13;;
15643;SDS011;7921;43.586;1.408;2022-10-31T20:56:19;9.15;;;6.50;;
15643;SDS011;7921;43.586;1.408;2022-10-31T20:58:46;10.25;;;6.60;;
15643;SDS011;7921;43.586;1.408;2022-10-31T21:01:13;9.13;;;6.65;;
15643;SDS011;7921;43.586;1.408;2022-10-31T21:03:43;9.57;;;6.50;;
15643;SDS011;7921;43.586;1.408;2022-10-31T21:06:08;12.90;;;6.93;;
15643;SDS011;7921;43.586;1.408;2022-10-31T21:08:35;12.23;;;6.78;;
15643;SDS011;7921;43.586;1.408;2022-10-31T21:11:04;11.73;;;6.43;;
15643;SDS011;7921;43.586;1.408;2022-10-31T21:13:34;11.40;;;6.53;;
15643;SDS011;7921;43.586;1.408;2022-10-31T21:16:02;11.48;;;6.63;;
15643;SDS011;7921;43.586;1.408;2022-10-31T21:18:35;10.90;;;6.93;;
15643;SDS011;7921;43.586;1.408;2022-10-31T21:21:05;9.90;;;6.25;;
15643;SDS011;7921;43.586;1.408;2022-10-31T21:23:32;11.82;;;6.47;;
15643;SDS011;7921;43.586;1.408;2022-10-31T21:25:57;12.50;;;6.15;;
15643;SDS011;7921;43.586;1.408;2022-10-31T21:28:22;12.35;;;7.13;;
15643;SDS011;7921;43.586;1.408;2022-10-31T21:30:48;11.10;;;6.97;;
15643;SDS011;7921;43.586;1.408;2022-10-31T21:33:15;10.85;;;6.72;;
15643;SDS011;7921;43.586;1.408;2022-10-31T21:35:47;9.30;;;6.65;;
15643;SDS011;7921;43.586;1.408;2022-10-31T21:38:13;12.23;;;7.45;;
15643;SDS011;7921;43.586;1.408;2022-10-31T21:40:38;7.45;;;6.35;;
15643;SDS011;7921;43.586;1.408;2022-10-31T21:43:04;9.68;;;6.65;;
15643;SDS011;7921;43.586;1.408;2022-10-31T21:45:29;10.95;;;7.05;;
15643;SDS011;7921;43.586;1.408;2022-10-31T21:47:54;10.23;;;7.00;;
15643;SDS011;7921;43.586;1.408;2022-10-31T21:50:20;12.38;;;6.97;;
15643;SDS011;7921;43.586;1.408;2022-10-31T21:52:46;10.70;;;7.28;;
15643;SDS011;7921;43.586;1.408;2022-10-31T21:55:11;10.40;;;7.10;;
15643;SDS011;7921;43.586;1.408;2022-10-31T21:57:37;13.48;;;7.13;;
15643;SDS011;7921;43.586;1.408;2022-10-31T22:00:03;10.73;;;7.22;;
15643;SDS011;7921;43.586;1.408;2022-10-31T22:02:31;9.73;;;6.63;;
15643;SDS011;7921;43.586;1.408;2022-10-31T22:04:56;12.60;;;7.03;;
15643;SDS011;7921;43.586;1.408;2022-10-31T22:07:22;16.77;;;6.82;;
15643;SDS011;7921;43.586;1.408;2022-10-31T22:09:47;12.65;;;6.60;;
15643;SDS011;7921;43.586;1.408;2022-10-31T22:12:13;11.27;;;6.82;;
15643;SDS011;7921;43.586;1.408;2022-10-31T22:14:39;14.70;;;7.13;;
15643;SDS011;7921;43.586;1.408;2022-10-31T22:17:04;11.20;;;7.00;;
15643;SDS011;7921;43.586;1.408;2022-10-31T22:19:30;13.35;;;8.18;;
15643;SDS011;7921;43.586;1.408;2022-10-31T22:21:55;13.77;;;7.68;;
15643;SDS011;7921;43.586;1.408;2022-10-31T22:24:21;12.38;;;6.93;;
15643;SDS011;7921;43.586;1.408;2022-10-31T22:26:46;9.70;;;6.63;;
15643;SDS011;7921;43.586;1.408;2022-10-31T22:29:13;11.18;;;7.15;;
15643;SDS011;7921;43.586;1.408;2022-10-31T22:31:41;9.63;;;6.85;;
15643;SDS011;7921;43.586;1.408;2022-10-31T22:34:08;11.40;;;7.35;;
15643;SDS011;7921;43.586;1.408;2022-10-31T22:36:34;11.65;;;7.85;;
15643;SDS011;7921;43.586;1.408;2022-10-31T22:39:00;10.75;;;6.70;;
15643;SDS011;7921;43.586;1.408;2022-10-31T22:41:29;10.77;;;6.75;;
15643;SDS011;7921;43.586;1.408;2022-10-31T22:43:56;10.82;;;7.03;;
15643;SDS011;7921;43.586;1.408;2022-10-31T22:46:25;12.13;;;7.53;;
15643;SDS011;7921;43.586;1.408;2022-10-31T22:48:54;12.02;;;7.43;;
15643;SDS011;7921;43.586;1.408;2022-10-31T22:51:22;12.85;;;7.55;;
15643;SDS011;7921;43.586;1.408;2022-10-31T22:53:55;12.63;;;7.07;;
15643;SDS011;7921;43.586;1.408;2022-10-31T22:56:21;9.68;;;7.05;;
15643;SDS011;7921;43.586;1.408;2022-10-31T22:58:47;9.35;;;7.03;;
15643;SDS011;7921;43.586;1.408;2022-10-31T23:01:14;11.77;;;7.40;;
15643;SDS011;7921;43.586;1.408;2022-10-31T23:03:42;9.38;;;8.05;;
15643;SDS011;7921;43.586;1.408;2022-10-31T23:06:11;14.57;;;7.72;;
15643;SDS011;7921;43.586;1.408;2022-10-31T23:08:39;9.95;;;7.22;;
15643;SDS011;7921;43.586;1.408;2022-10-31T23:11:21;10.30;;;7.32;;
15643;SDS011;7921;43.586;1.408;2022-10-31T23:13:49;13.13;;;8.02;;
15643;SDS011;7921;43.586;1.408;2022-10-31T23:19:22;10.35;;;5.63;;
15643;SDS011;7921;43.586;1.408;2022-10-31T23:21:50;9.18;;;4.82;;
15643;SDS011;7921;43.586;1.408;2022-10-31T23:26:53;7.20;;;3.83;;
15643;SDS011;7921;43.586;1.408;2022-10-31T23:32:03;4.43;;;3.20;;
15643;SDS011;7921;43.586;1.408;2022-10-31T23:34:30;5.85;;;3.20;;
15643;SDS011;7921;43.586;1.408;2022-10-31T23:36:55;5.20;;;3.30;;
15643;SDS011;7921;43.586;1.408;2022-10-31T23:39:21;8.35;;;4.53;;
15643;SDS011;7921;43.586;1.408;2022-10-31T23:41:46;10.93;;;4.43;;
15643;SDS011;7921;43.586;1.408;2022-10-31T23:44:11;7.50;;;4.10;;
15643;SDS011;7921;43.586;1.408;2022-10-31T23:46:37;5.38;;;3.40;;
15643;SDS011;7921;43.586;1.408;2022-10-31T23:49:02;4.28;;;3.38;;
15643;SDS011;7921;43.586;1.408;2022-10-31T23:51:28;6.85;;;3.20;;
15643;SDS011;7921;43.586;1.408;2022-10-31T23:53:53;5.93;;;3.60;;
15643;SDS011;7921;43.586;1.408;2022-10-31T23:56:19;4.80;;;3.47;;
15643;SDS011;7921;43.586;1.408;2022-10-31T23:58:44;6.13;;;3.22;;
